sensor_id;sensor_type;location;lat;lon;timestamp;pressure;altitude;pressure_sealevel;temperature;humidity
11830;BME280;5972;42.134;24.718;2023-06-22T00:00:53;99836.97;;;25.28;100.00
11830;BME280;5972;42.134;24.718;2023-06-22T00:03:21;99836.28;;;25.24;100.00
11830;BME280;5972;42.134;24.718;2023-06-22T00:05:49;99842.34;;;25.19;100.00
11830;BME280;5972;42.134;24.718;2023-06-22T00:08:17;99840.81;;;25.18;100.00
11830;BME280;5972;42.134;24.718;2023-06-22T00:10:44;99846.69;;;25.04;100.00
11830;BME280;5972;42.134;24.718;2023-06-22T00:13:12;99855.88;;;25.01;100.00
11830;BME280;5972;42.134;24.718;2023-06-22T00:15:41;99850.84;;;24.96;100.00
11830;BME280;5972;42.134;24.718;2023-06-22T00:18:10;99840.88;;;24.98;100.00
11830;BME280;5972;42.134;24.718;2023-06-22T00:20:37;99835.22;;;24.85;100.00
11830;BME280;5972;42.134;24.718;2023-06-22T00:23:06;99858.81;;;24.94;100.00
11830;BME280;5972;42.134;24.718;2023-06-22T00:25:34;99846.81;;;24.80;100.00
11830;BME280;5972;42.134;24.718;2023-06-22T00:28:01;99861.91;;;24.79;100.00
11830;BME280;5972;42.134;24.718;2023-06-22T00:30:30;99867.50;;;24.76;100.00
11830;BME280;5972;42.134;24.718;2023-06-22T00:32:58;99868.38;;;24.73;100.00
11830;BME280;5972;42.134;24.718;2023-06-22T00:35:25;99864.03;;;24.72;100.00
11830;BME280;5972;42.134;24.718;2023-06-22T00:37:55;99868.53;;;24.66;100.00
11830;BME280;5972;42.134;24.718;2023-06-22T00:40:27;99862.38;;;24.58;100.00
11830;BME280;5972;42.134;24.718;2023-06-22T00:42:54;99868.88;;;24.52;100.00
11830;BME280;5972;42.134;24.718;2023-06-22T00:45:24;99871.69;;;24.48;100.00
11830;BME280;5972;42.134;24.718;2023-06-22T00:47:52;99873.88;;;24.40;100.00
11830;BME280;5972;42.134;24.718;2023-06-22T00:50:23;99877.38;;;24.41;100.00
11830;BME280;5972;42.134;24.718;2023-06-22T00:52:52;99876.13;;;24.46;100.00
11830;BME280;5972;42.134;24.718;2023-06-22T00:55:19;99873.34;;;24.46;100.00
11830;BME280;5972;42.134;24.718;2023-06-22T00:57:47;99862.06;;;24.36;100.00
11830;BME280;5972;42.134;24.718;2023-06-22T01:00:15;99869.31;;;24.30;100.00
11830;BME280;5972;42.134;24.718;2023-06-22T01:02:43;99867.78;;;24.29;100.00
11830;BME280;5972;42.134;24.718;2023-06-22T01:05:12;99867.16;;;24.22;100.00
11830;BME280;5972;42.134;24.718;2023-06-22T01:07:49;99865.22;;;24.19;100.00
11830;BME280;5972;42.134;24.718;2023-06-22T01:10:26;99868.81;;;24.16;100.00
11830;BME280;5972;42.134;24.718;2023-06-22T01:13:00;99870.94;;;24.08;100.00
11830;BME280;5972;42.134;24.718;2023-06-22T01:15:30;99878.81;;;24.10;100.00
11830;BME280;5972;42.134;24.718;2023-06-22T01:18:00;99867.56;;;24.00;100.00
11830;BME280;5972;42.134;24.718;2023-06-22T01:20:30;99850.47;;;23.86;100.00
11830;BME280;5972;42.134;24.718;2023-06-22T01:23:09;99866.66;;;24.07;100.00
11830;BME280;5972;42.134;24.718;2023-06-22T01:25:46;99858.72;;;23.89;100.00
11830;BME280;5972;42.134;24.718;2023-06-22T01:28:29;99865.06;;;23.86;100.00
11830;BME280;5972;42.134;24.718;2023-06-22T01:30:57;99862.81;;;23.81;100.00
11830;BME280;5972;42.134;24.718;2023-06-22T01:33:33;99857.06;;;23.72;100.00
11830;BME280;5972;42.134;24.718;2023-06-22T01:36:01;99858.78;;;23.66;100.00
11830;BME280;5972;42.134;24.718;2023-06-22T01:38:28;99868.81;;;23.56;100.00
11830;BME280;5972;42.134;24.718;2023-06-22T01:40:57;99863.94;;;23.41;100.00
11830;BME280;5972;42.134;24.718;2023-06-22T01:43:25;99849.69;;;23.23;100.00
11830;BME280;5972;42.134;24.718;2023-06-22T01:45:55;99863.78;;;23.28;100.00
11830;BME280;5972;42.134;24.718;2023-06-22T01:48:23;99855.53;;;23.25;100.00
11830;BME280;5972;42.134;24.718;2023-06-22T01:50:51;99852.97;;;23.14;100.00
11830;BME280;5972;42.134;24.718;2023-06-22T01:53:20;99862.00;;;23.18;100.00
11830;BME280;5972;42.134;24.718;2023-06-22T01:55:47;99867.22;;;23.12;100.00
11830;BME280;5972;42.134;24.718;2023-06-22T01:58:20;99867.50;;;23.18;100.00
11830;BME280;5972;42.134;24.718;2023-06-22T02:00:55;99864.75;;;23.18;100.00
11830;BME280;5972;42.134;24.718;2023-06-22T02:03:30;99868.75;;;23.13;100.00
11830;BME280;5972;42.134;24.718;2023-06-22T02:06:03;99876.00;;;23.04;100.00
11830;BME280;5972;42.134;24.718;2023-06-22T02:08:37;99868.13;;;23.02;100.00
11830;BME280;5972;42.134;24.718;2023-06-22T02:11:06;99866.22;;;22.99;100.00
11830;BME280;5972;42.134;24.718;2023-06-22T02:13:33;99862.31;;;22.97;100.00
11830;BME280;5972;42.134;24.718;2023-06-22T02:16:02;99863.16;;;22.94;100.00
11830;BME280;5972;42.134;24.718;2023-06-22T02:18:29;99841.03;;;22.70;100.00
11830;BME280;5972;42.134;24.718;2023-06-22T02:20:56;99872.81;;;22.82;100.00
11830;BME280;5972;42.134;24.718;2023-06-22T02:23:23;99870.47;;;22.80;100.00
11830;BME280;5972;42.134;24.718;2023-06-22T02:25:50;99869.69;;;22.80;100.00
11830;BME280;5972;42.134;24.718;2023-06-22T02:28:17;99877.25;;;22.76;100.00
11830;BME280;5972;42.134;24.718;2023-06-22T02:30:46;99883.13;;;22.78;100.00
11830;BME280;5972;42.134;24.718;2023-06-22T02:33:14;99862.00;;;22.64;100.00
11830;BME280;5972;42.134;24.718;2023-06-22T02:35:44;99879.34;;;22.65;100.00
11830;BME280;5972;42.134;24.718;2023-06-22T02:38:14;99878.97;;;22.63;100.00
11830;BME280;5972;42.134;24.718;2023-06-22T02:40:42;99876.28;;;22.59;100.00
11830;BME280;5972;42.134;24.718;2023-06-22T02:43:09;99868.63;;;22.44;100.00
11830;BME280;5972;42.134;24.718;2023-06-22T02:45:36;99887.06;;;22.50;100.00
11830;BME280;5972;42.134;24.718;2023-06-22T02:48:04;99883.19;;;22.44;100.00
11830;BME280;5972;42.134;24.718;2023-06-22T02:50:33;99881.03;;;22.28;100.00
11830;BME280;5972;42.134;24.718;2023-06-22T02:52:59;99886.19;;;22.26;100.00
11830;BME280;5972;42.134;24.718;2023-06-22T02:55:26;99891.69;;;22.26;100.00
11830;BME280;5972;42.134;24.718;2023-06-22T02:57:53;99885.16;;;22.13;100.00
11830;BME280;5972;42.134;24.718;2023-06-22T03:00:20;99893.03;;;22.15;100.00
11830;BME280;5972;42.134;24.718;2023-06-22T03:02:48;99892.53;;;22.23;100.00
11830;BME280;5972;42.134;24.718;2023-06-22T03:05:16;99897.34;;;22.16;100.00
11830;BME280;5972;42.134;24.718;2023-06-22T03:07:45;99903.59;;;22.20;100.00
11830;BME280;5972;42.134;24.718;2023-06-22T03:10:12;99902.81;;;22.19;100.00
11830;BME280;5972;42.134;24.718;2023-06-22T03:12:41;99897.94;;;22.30;100.00
11830;BME280;5972;42.134;24.718;2023-06-22T03:15:11;99896.66;;;22.38;100.00
11830;BME280;5972;42.134;24.718;2023-06-22T03:17:39;99901.97;;;22.53;100.00
11830;BME280;5972;42.134;24.718;2023-06-22T03:20:07;99898.81;;;22.54;100.00
11830;BME280;5972;42.134;24.718;2023-06-22T03:22:36;99907.59;;;22.76;100.00
11830;BME280;5972;42.134;24.718;2023-06-22T03:25:05;99907.50;;;22.83;100.00
11830;BME280;5972;42.134;24.718;2023-06-22T03:27:38;99919.97;;;22.91;100.00
11830;BME280;5972;42.134;24.718;2023-06-22T03:30:08;99915.19;;;22.95;100.00
11830;BME280;5972;42.134;24.718;2023-06-22T03:32:35;99920.00;;;23.14;100.00
11830;BME280;5972;42.134;24.718;2023-06-22T03:35:03;99919.03;;;23.25;100.00
11830;BME280;5972;42.134;24.718;2023-06-22T03:37:31;99920.69;;;23.45;100.00
11830;BME280;5972;42.134;24.718;2023-06-22T03:39:58;99924.97;;;23.50;100.00
11830;BME280;5972;42.134;24.718;2023-06-22T03:42:26;99920.09;;;23.57;100.00
11830;BME280;5972;42.134;24.718;2023-06-22T03:44:53;99926.84;;;23.76;100.00
11830;BME280;5972;42.134;24.718;2023-06-22T03:47:20;99927.16;;;23.82;100.00
11830;BME280;5972;42.134;24.718;2023-06-22T03:49:47;99925.75;;;23.93;100.00
11830;BME280;5972;42.134;24.718;2023-06-22T03:52:14;99920.94;;;24.17;100.00
11830;BME280;5972;42.134;24.718;2023-06-22T03:54:41;99930.09;;;24.34;100.00
11830;BME280;5972;42.134;24.718;2023-06-22T03:57:07;99923.09;;;24.29;100.00
11830;BME280;5972;42.134;24.718;2023-06-22T03:59:36;99917.38;;;24.36;100.00
11830;BME280;5972;42.134;24.718;2023-06-22T04:02:03;99923.19;;;24.62;100.00
11830;BME280;5972;42.134;24.718;2023-06-22T04:04:30;99919.72;;;24.94;100.00
11830;BME280;5972;42.134;24.718;2023-06-22T04:06:57;99915.06;;;25.07;100.00
11830;BME280;5972;42.134;24.718;2023-06-22T04:09:24;99918.59;;;25.23;100.00
11830;BME280;5972;42.134;24.718;2023-06-22T04:11:51;99922.41;;;25.62;100.00
11830;BME280;5972;42.134;24.718;2023-06-22T04:14:17;99894.75;;;25.58;100.00
11830;BME280;5972;42.134;24.718;2023-06-22T04:16:46;99918.13;;;26.02;99.97
11830;BME280;5972;42.134;24.718;2023-06-22T04:19:12;99919.28;;;26.18;98.74
11830;BME280;5972;42.134;24.718;2023-06-22T04:21:42;99926.03;;;26.58;94.27
11830;BME280;5972;42.134;24.718;2023-06-22T04:24:09;99927.84;;;26.90;91.43
11830;BME280;5972;42.134;24.718;2023-06-22T04:26:36;99937.78;;;27.63;82.96
11830;BME280;5972;42.134;24.718;2023-06-22T04:29:03;99924.97;;;28.75;72.74
11830;BME280;5972;42.134;24.718;2023-06-22T04:31:31;99925.31;;;30.26;60.03
11830;BME280;5972;42.134;24.718;2023-06-22T04:34:04;99930.94;;;31.19;55.97
11830;BME280;5972;42.134;24.718;2023-06-22T04:36:36;99939.19;;;32.53;49.64
11830;BME280;5972;42.134;24.718;2023-06-22T04:39:08;99937.03;;;33.47;46.11
11830;BME280;5972;42.134;24.718;2023-06-22T04:41:35;99927.63;;;34.16;43.36
11830;BME280;5972;42.134;24.718;2023-06-22T04:44:11;99937.03;;;34.65;42.05
11830;BME280;5972;42.134;24.718;2023-06-22T04:46:39;99944.81;;;35.61;40.02
11830;BME280;5972;42.134;24.718;2023-06-22T04:49:08;99930.31;;;35.84;38.54
11830;BME280;5972;42.134;24.718;2023-06-22T04:51:39;99938.56;;;35.94;38.65
11830;BME280;5972;42.134;24.718;2023-06-22T04:54:07;99940.16;;;36.22;38.00
11830;BME280;5972;42.134;24.718;2023-06-22T04:56:35;99942.50;;;36.69;37.29
11830;BME280;5972;42.134;24.718;2023-06-22T04:59:02;99928.66;;;36.82;36.98
11830;BME280;5972;42.134;24.718;2023-06-22T05:01:29;99924.75;;;37.07;36.87
11830;BME280;5972;42.134;24.718;2023-06-22T05:03:57;99915.03;;;37.77;35.23
11830;BME280;5972;42.134;24.718;2023-06-22T05:06:27;99922.97;;;37.84;34.99
11830;BME280;5972;42.134;24.718;2023-06-22T05:08:55;99924.94;;;38.36;34.27
11830;BME280;5972;42.134;24.718;2023-06-22T05:11:24;99911.94;;;37.75;34.30
11830;BME280;5972;42.134;24.718;2023-06-22T05:13:51;99917.28;;;37.90;35.14
11830;BME280;5972;42.134;24.718;2023-06-22T05:16:18;99923.13;;;37.97;34.82
11830;BME280;5972;42.134;24.718;2023-06-22T05:18:49;99922.13;;;37.95;34.79
11830;BME280;5972;42.134;24.718;2023-06-22T05:21:16;99921.59;;;37.96;35.39
11830;BME280;5972;42.134;24.718;2023-06-22T05:23:44;99912.41;;;38.61;34.06
11830;BME280;5972;42.134;24.718;2023-06-22T05:26:11;99915.25;;;38.85;33.27
11830;BME280;5972;42.134;24.718;2023-06-22T05:28:38;99916.91;;;39.67;32.82
11830;BME280;5972;42.134;24.718;2023-06-22T05:31:05;99925.09;;;40.08;31.82
11830;BME280;5972;42.134;24.718;2023-06-22T05:33:32;99919.06;;;39.61;31.27
11830;BME280;5972;42.134;24.718;2023-06-22T05:35:59;99933.13;;;39.47;31.10
11830;BME280;5972;42.134;24.718;2023-06-22T05:38:26;99927.25;;;39.64;30.65
11830;BME280;5972;42.134;24.718;2023-06-22T05:40:54;99928.66;;;39.33;31.06
11830;BME280;5972;42.134;24.718;2023-06-22T05:43:21;99918.81;;;39.16;31.08
11830;BME280;5972;42.134;24.718;2023-06-22T05:45:48;99926.22;;;39.43;30.90
11830;BME280;5972;42.134;24.718;2023-06-22T05:48:15;99920.44;;;39.54;30.75
11830;BME280;5972;42.134;24.718;2023-06-22T05:50:42;99922.59;;;39.67;30.33
11830;BME280;5972;42.134;24.718;2023-06-22T05:53:09;99931.44;;;39.58;30.36
11830;BME280;5972;42.134;24.718;2023-06-22T05:55:35;99928.84;;;39.60;30.38
11830;BME280;5972;42.134;24.718;2023-06-22T05:58:04;99928.06;;;38.92;31.31
11830;BME280;5972;42.134;24.718;2023-06-22T06:00:30;99925.69;;;38.06;32.55
11830;BME280;5972;42.134;24.718;2023-06-22T06:02:57;99924.00;;;38.57;32.71
11830;BME280;5972;42.134;24.718;2023-06-22T06:05:28;99924.69;;;39.42;30.96
11830;BME280;5972;42.134;24.718;2023-06-22T06:07:55;99921.66;;;40.47;28.93
11830;BME280;5972;42.134;24.718;2023-06-22T06:10:22;99927.66;;;40.88;28.54
11830;BME280;5972;42.134;24.718;2023-06-22T06:12:49;99932.72;;;41.08;28.18
11830;BME280;5972;42.134;24.718;2023-06-22T06:15:18;99928.69;;;40.27;28.80
11830;BME280;5972;42.134;24.718;2023-06-22T06:17:45;99926.19;;;39.00;30.89
11830;BME280;5972;42.134;24.718;2023-06-22T06:20:13;99927.63;;;37.76;31.69
11830;BME280;5972;42.134;24.718;2023-06-22T06:22:40;99919.16;;;36.46;33.21
11830;BME280;5972;42.134;24.718;2023-06-22T06:25:08;99925.84;;;35.56;34.35
11830;BME280;5972;42.134;24.718;2023-06-22T06:27:35;99922.75;;;34.69;36.73
11830;BME280;5972;42.134;24.718;2023-06-22T06:30:02;99917.09;;;34.32;37.39
11830;BME280;5972;42.134;24.718;2023-06-22T06:32:31;99914.38;;;33.91;38.57
11830;BME280;5972;42.134;24.718;2023-06-22T06:34:58;99911.72;;;33.41;38.40
11830;BME280;5972;42.134;24.718;2023-06-22T06:37:25;99892.59;;;32.55;40.25
11830;BME280;5972;42.134;24.718;2023-06-22T06:39:51;99905.47;;;32.47;40.91
11830;BME280;5972;42.134;24.718;2023-06-22T06:42:18;99912.31;;;32.17;41.42
11830;BME280;5972;42.134;24.718;2023-06-22T06:44:48;99906.38;;;32.00;42.49
11830;BME280;5972;42.134;24.718;2023-06-22T06:47:15;99902.66;;;32.03;43.08
11830;BME280;5972;42.134;24.718;2023-06-22T06:49:43;99900.56;;;32.13;42.75
11830;BME280;5972;42.134;24.718;2023-06-22T06:52:10;99904.63;;;32.27;42.45
11830;BME280;5972;42.134;24.718;2023-06-22T06:54:37;99898.69;;;32.39;42.37
11830;BME280;5972;42.134;24.718;2023-06-22T06:57:04;99899.88;;;32.47;42.89
11830;BME280;5972;42.134;24.718;2023-06-22T06:59:31;99905.38;;;32.27;42.65
11830;BME280;5972;42.134;24.718;2023-06-22T07:01:57;99908.44;;;32.44;43.44
11830;BME280;5972;42.134;24.718;2023-06-22T07:04:24;99901.50;;;32.54;42.50
11830;BME280;5972;42.134;24.718;2023-06-22T07:06:52;99902.75;;;32.68;41.64
11830;BME280;5972;42.134;24.718;2023-06-22T07:09:19;99904.41;;;32.59;41.24
11830;BME280;5972;42.134;24.718;2023-06-22T07:11:46;99902.47;;;32.36;42.64
11830;BME280;5972;42.134;24.718;2023-06-22T07:14:12;99904.00;;;32.52;42.43
11830;BME280;5972;42.134;24.718;2023-06-22T07:16:39;99898.97;;;32.56;42.14
11830;BME280;5972;42.134;24.718;2023-06-22T07:19:07;99904.91;;;32.43;41.96
11830;BME280;5972;42.134;24.718;2023-06-22T07:21:34;99906.31;;;32.39;42.10
11830;BME280;5972;42.134;24.718;2023-06-22T07:24:02;99908.09;;;32.36;41.73
11830;BME280;5972;42.134;24.718;2023-06-22T07:26:31;99897.75;;;32.42;42.07
11830;BME280;5972;42.134;24.718;2023-06-22T07:28:57;99896.50;;;32.43;41.51
11830;BME280;5972;42.134;24.718;2023-06-22T07:31:24;99906.13;;;32.57;42.00
11830;BME280;5972;42.134;24.718;2023-06-22T07:33:51;99911.31;;;32.79;41.44
11830;BME280;5972;42.134;24.718;2023-06-22T07:36:18;99910.84;;;32.80;41.15
11830;BME280;5972;42.134;24.718;2023-06-22T07:38:45;99910.72;;;32.89;40.10
11830;BME280;5972;42.134;24.718;2023-06-22T07:41:13;99906.34;;;33.03;39.85
11830;BME280;5972;42.134;24.718;2023-06-22T07:43:40;99910.81;;;33.30;39.38
11830;BME280;5972;42.134;24.718;2023-06-22T07:46:07;99908.41;;;33.23;39.56
11830;BME280;5972;42.134;24.718;2023-06-22T07:48:36;99906.88;;;33.22;39.44
11830;BME280;5972;42.134;24.718;2023-06-22T07:51:04;99904.72;;;33.31;39.54
11830;BME280;5972;42.134;24.718;2023-06-22T07:53:32;99904.22;;;33.53;38.77
11830;BME280;5972;42.134;24.718;2023-06-22T07:55:59;99903.97;;;33.71;37.45
11830;BME280;5972;42.134;24.718;2023-06-22T07:58:27;99906.22;;;33.93;36.79
11830;BME280;5972;42.134;24.718;2023-06-22T08:00:54;99901.94;;;33.98;36.27
11830;BME280;5972;42.134;24.718;2023-06-22T08:03:20;99903.84;;;34.12;37.21
11830;BME280;5972;42.134;24.718;2023-06-22T08:05:57;99903.97;;;33.97;36.22
11830;BME280;5972;42.134;24.718;2023-06-22T08:08:24;99901.88;;;33.92;36.22
11830;BME280;5972;42.134;24.718;2023-06-22T08:10:51;99896.69;;;33.85;36.56
11830;BME280;5972;42.134;24.718;2023-06-22T08:13:17;99892.13;;;33.88;37.13
11830;BME280;5972;42.134;24.718;2023-06-22T08:15:46;99891.72;;;34.00;36.14
11830;BME280;5972;42.134;24.718;2023-06-22T08:18:13;99885.19;;;34.09;36.19
11830;BME280;5972;42.134;24.718;2023-06-22T08:20:40;99875.88;;;33.97;36.07
11830;BME280;5972;42.134;24.718;2023-06-22T08:23:06;99870.13;;;34.12;36.65
11830;BME280;5972;42.134;24.718;2023-06-22T08:25:33;99878.78;;;34.34;35.40
11830;BME280;5972;42.134;24.718;2023-06-22T08:28:00;99875.03;;;34.43;35.67
11830;BME280;5972;42.134;24.718;2023-06-22T08:30:28;99875.44;;;34.67;34.84
11830;BME280;5972;42.134;24.718;2023-06-22T08:32:56;99871.38;;;34.68;35.01
11830;BME280;5972;42.134;24.718;2023-06-22T08:35:23;99870.34;;;34.66;35.97
11830;BME280;5972;42.134;24.718;2023-06-22T08:37:50;99856.19;;;34.49;34.49
11830;BME280;5972;42.134;24.718;2023-06-22T08:40:20;99863.47;;;34.35;34.84
11830;BME280;5972;42.134;24.718;2023-06-22T08:42:47;99857.41;;;34.16;34.88
11830;BME280;5972;42.134;24.718;2023-06-22T08:45:14;99863.81;;;34.17;34.94
11830;BME280;5972;42.134;24.718;2023-06-22T08:47:41;99872.72;;;34.41;34.95
11830;BME280;5972;42.134;24.718;2023-06-22T08:50:10;99857.44;;;34.48;33.22
11830;BME280;5972;42.134;24.718;2023-06-22T08:52:37;99859.97;;;34.46;33.76
11830;BME280;5972;42.134;24.718;2023-06-22T08:55:07;99868.41;;;34.46;32.69
11830;BME280;5972;42.134;24.718;2023-06-22T08:57:34;99856.63;;;33.64;33.65
11830;BME280;5972;42.134;24.718;2023-06-22T09:00:03;99835.81;;;33.51;34.52
11830;BME280;5972;42.134;24.718;2023-06-22T09:02:33;99857.50;;;33.96;33.85
11830;BME280;5972;42.134;24.718;2023-06-22T09:05:03;99855.97;;;34.21;33.48
11830;BME280;5972;42.134;24.718;2023-06-22T09:07:31;99863.34;;;33.93;34.01
11830;BME280;5972;42.134;24.718;2023-06-22T09:09:59;99858.97;;;33.66;35.59
11830;BME280;5972;42.134;24.718;2023-06-22T09:12:26;99852.28;;;33.63;35.44
11830;BME280;5972;42.134;24.718;2023-06-22T09:14:56;99848.69;;;33.83;35.37
11830;BME280;5972;42.134;24.718;2023-06-22T09:17:22;99857.97;;;33.95;34.41
11830;BME280;5972;42.134;24.718;2023-06-22T09:19:49;99861.75;;;34.17;34.00
11830;BME280;5972;42.134;24.718;2023-06-22T09:22:16;99854.50;;;34.31;33.50
11830;BME280;5972;42.134;24.718;2023-06-22T09:24:44;99856.06;;;33.80;33.33
11830;BME280;5972;42.134;24.718;2023-06-22T09:27:11;99852.59;;;33.45;32.54
11830;BME280;5972;42.134;24.718;2023-06-22T09:29:38;99850.75;;;33.62;32.93
11830;BME280;5972;42.134;24.718;2023-06-22T09:32:06;99848.91;;;33.79;32.90
11830;BME280;5972;42.134;24.718;2023-06-22T09:34:33;99846.53;;;33.98;32.74
11830;BME280;5972;42.134;24.718;2023-06-22T09:36:59;99840.66;;;33.50;31.57
11830;BME280;5972;42.134;24.718;2023-06-22T09:39:27;99832.63;;;33.37;32.28
11830;BME280;5972;42.134;24.718;2023-06-22T09:41:57;99828.72;;;32.94;31.53
11830;BME280;5972;42.134;24.718;2023-06-22T09:44:24;99829.88;;;32.82;32.14
11830;BME280;5972;42.134;24.718;2023-06-22T09:46:51;99827.13;;;32.88;33.82
11830;BME280;5972;42.134;24.718;2023-06-22T09:49:18;99841.41;;;33.25;32.96
11830;BME280;5972;42.134;24.718;2023-06-22T09:51:44;99840.97;;;33.32;33.71
11830;BME280;5972;42.134;24.718;2023-06-22T09:54:11;99827.28;;;32.99;33.47
11830;BME280;5972;42.134;24.718;2023-06-22T09:56:38;99834.78;;;33.08;34.30
11830;BME280;5972;42.134;24.718;2023-06-22T09:59:06;99831.25;;;33.53;34.41
11830;BME280;5972;42.134;24.718;2023-06-22T10:01:33;99817.75;;;33.77;33.05
11830;BME280;5972;42.134;24.718;2023-06-22T10:04:00;99830.81;;;34.38;32.76
11830;BME280;5972;42.134;24.718;2023-06-22T10:06:27;99828.81;;;34.81;31.43
11830;BME280;5972;42.134;24.718;2023-06-22T10:08:53;99815.63;;;35.03;30.99
11830;BME280;5972;42.134;24.718;2023-06-22T10:11:20;99817.78;;;35.20;30.71
11830;BME280;5972;42.134;24.718;2023-06-22T10:13:52;99827.09;;;35.54;30.52
11830;BME280;5972;42.134;24.718;2023-06-22T10:16:20;99824.56;;;35.78;29.96
11830;BME280;5972;42.134;24.718;2023-06-22T10:18:47;99817.69;;;35.84;29.91
11830;BME280;5972;42.134;24.718;2023-06-22T10:21:14;99821.78;;;36.00;29.41
11830;BME280;5972;42.134;24.718;2023-06-22T10:23:41;99825.59;;;35.75;29.19
11830;BME280;5972;42.134;24.718;2023-06-22T10:26:07;99816.28;;;35.35;30.44
11830;BME280;5972;42.134;24.718;2023-06-22T10:28:34;99812.94;;;34.78;30.43
11830;BME280;5972;42.134;24.718;2023-06-22T10:31:01;99801.59;;;34.24;30.97
11830;BME280;5972;42.134;24.718;2023-06-22T10:33:29;99806.09;;;34.16;31.93
11830;BME280;5972;42.134;24.718;2023-06-22T10:35:56;99804.88;;;34.22;32.49
11830;BME280;5972;42.134;24.718;2023-06-22T10:38:22;99794.06;;;34.10;32.11
11830;BME280;5972;42.134;24.718;2023-06-22T10:40:49;99792.13;;;33.96;32.08
11830;BME280;5972;42.134;24.718;2023-06-22T10:43:16;99795.63;;;34.16;31.48
11830;BME280;5972;42.134;24.718;2023-06-22T10:45:43;99786.31;;;34.31;31.50
11830;BME280;5972;42.134;24.718;2023-06-22T10:48:09;99782.09;;;34.52;31.01
11830;BME280;5972;42.134;24.718;2023-06-22T10:50:38;99780.09;;;34.58;31.52
11830;BME280;5972;42.134;24.718;2023-06-22T10:53:04;99774.41;;;34.95;30.68
11830;BME280;5972;42.134;24.718;2023-06-22T10:55:31;99769.19;;;35.30;31.28
11830;BME280;5972;42.134;24.718;2023-06-22T10:57:58;99763.13;;;35.60;30.23
11830;BME280;5972;42.134;24.718;2023-06-22T11:00:24;99766.75;;;35.88;29.91
11830;BME280;5972;42.134;24.718;2023-06-22T11:02:51;99760.56;;;36.06;29.12
11830;BME280;5972;42.134;24.718;2023-06-22T11:05:18;99767.50;;;36.11;29.55
11830;BME280;5972;42.134;24.718;2023-06-22T11:07:46;99760.59;;;36.17;30.05
11830;BME280;5972;42.134;24.718;2023-06-22T11:10:15;99737.03;;;36.04;29.14
11830;BME280;5972;42.134;24.718;2023-06-22T11:12:41;99756.47;;;36.13;29.24
11830;BME280;5972;42.134;24.718;2023-06-22T11:15:09;99746.75;;;35.97;28.98
11830;BME280;5972;42.134;24.718;2023-06-22T11:17:36;99764.63;;;35.44;29.85
11830;BME280;5972;42.134;24.718;2023-06-22T11:20:04;99757.47;;;35.49;30.62
11830;BME280;5972;42.134;24.718;2023-06-22T11:22:36;99758.97;;;35.27;30.16
11830;BME280;5972;42.134;24.718;2023-06-22T11:25:05;99743.91;;;34.71;31.26
11830;BME280;5972;42.134;24.718;2023-06-22T11:27:33;99759.34;;;34.92;31.01
11830;BME280;5972;42.134;24.718;2023-06-22T11:29:59;99755.50;;;34.95;30.56
11830;BME280;5972;42.134;24.718;2023-06-22T11:32:26;99752.69;;;34.95;30.98
11830;BME280;5972;42.134;24.718;2023-06-22T11:34:53;99759.53;;;34.83;30.13
11830;BME280;5972;42.134;24.718;2023-06-22T11:37:20;99752.84;;;34.70;30.71
11830;BME280;5972;42.134;24.718;2023-06-22T11:39:46;99759.41;;;34.61;31.04
11830;BME280;5972;42.134;24.718;2023-06-22T11:42:15;99755.16;;;34.71;31.02
11830;BME280;5972;42.134;24.718;2023-06-22T11:44:42;99755.56;;;34.58;31.80
11830;BME280;5972;42.134;24.718;2023-06-22T11:47:09;99748.88;;;34.50;31.72
11830;BME280;5972;42.134;24.718;2023-06-22T11:49:35;99746.81;;;34.45;32.30
11830;BME280;5972;42.134;24.718;2023-06-22T11:52:02;99752.25;;;34.54;32.09
11830;BME280;5972;42.134;24.718;2023-06-22T11:54:29;99748.69;;;34.59;31.35
11830;BME280;5972;42.134;24.718;2023-06-22T11:56:56;99742.38;;;34.70;31.95
11830;BME280;5972;42.134;24.718;2023-06-22T11:59:24;99745.78;;;34.96;31.33
11830;BME280;5972;42.134;24.718;2023-06-22T12:01:51;99752.22;;;35.02;31.54
11830;BME280;5972;42.134;24.718;2023-06-22T12:04:18;99740.72;;;35.12;31.11
11830;BME280;5972;42.134;24.718;2023-06-22T12:06:44;99740.31;;;35.41;30.71
11830;BME280;5972;42.134;24.718;2023-06-22T12:09:12;99748.28;;;35.54;30.59
11830;BME280;5972;42.134;24.718;2023-06-22T12:11:39;99744.84;;;35.11;31.59
11830;BME280;5972;42.134;24.718;2023-06-22T12:14:06;99740.09;;;34.74;31.98
11830;BME280;5972;42.134;24.718;2023-06-22T12:16:34;99732.88;;;34.68;32.24
11830;BME280;5972;42.134;24.718;2023-06-22T12:19:01;99741.22;;;34.14;32.78
11830;BME280;5972;42.134;24.718;2023-06-22T12:21:27;99735.97;;;34.21;32.96
11830;BME280;5972;42.134;24.718;2023-06-22T12:23:54;99722.09;;;34.18;32.20
11830;BME280;5972;42.134;24.718;2023-06-22T12:26:21;99722.31;;;34.51;32.11
11830;BME280;5972;42.134;24.718;2023-06-22T12:28:48;99713.50;;;34.70;31.79
11830;BME280;5972;42.134;24.718;2023-06-22T12:31:15;99712.03;;;34.85;32.01
11830;BME280;5972;42.134;24.718;2023-06-22T12:33:43;99713.59;;;34.97;31.93
11830;BME280;5972;42.134;24.718;2023-06-22T12:36:10;99714.59;;;35.00;32.13
11830;BME280;5972;42.134;24.718;2023-06-22T12:38:36;99716.66;;;34.88;32.53
11830;BME280;5972;42.134;24.718;2023-06-22T12:41:03;99713.84;;;34.88;32.31
11830;BME280;5972;42.134;24.718;2023-06-22T12:43:30;99710.38;;;34.62;32.73
11830;BME280;5972;42.134;24.718;2023-06-22T12:45:57;99712.34;;;34.50;32.49
11830;BME280;5972;42.134;24.718;2023-06-22T12:48:25;99703.44;;;34.57;32.10
11830;BME280;5972;42.134;24.718;2023-06-22T12:50:54;99696.16;;;34.77;32.21
11830;BME280;5972;42.134;24.718;2023-06-22T12:53:20;99690.59;;;34.99;31.99
11830;BME280;5972;42.134;24.718;2023-06-22T12:55:49;99694.25;;;35.22;32.65
11830;BME280;5972;42.134;24.718;2023-06-22T12:58:15;99691.69;;;35.24;31.99
11830;BME280;5972;42.134;24.718;2023-06-22T13:00:42;99698.03;;;35.13;32.57